createdAt,value
2024-01-11T00:00:48.369Z,173.90
2024-01-11T00:03:15.887Z,190.60
2024-01-11T00:05:43.325Z,186.97
2024-01-11T00:08:10.127Z,182.87
2024-01-11T00:10:36.945Z,180.37
2024-01-11T00:13:03.783Z,180.70
2024-01-11T00:15:30.591Z,186.23
2024-01-11T00:17:57.398Z,181.37
2024-01-11T00:20:24.231Z,181.17
2024-01-11T00:22:51.006Z,171.73
2024-01-11T00:25:17.720Z,204.40
2024-01-11T00:27:44.361Z,170.93
2024-01-11T00:30:11.222Z,186.90
2024-01-11T00:32:38.044Z,199.77
2024-01-11T00:35:05.057Z,186.80
2024-01-11T00:37:31.799Z,189.17
2024-01-11T00:39:58.465Z,167.47
2024-01-11T00:42:25.187Z,188.70
2024-01-11T00:44:52.010Z,179.83
2024-01-11T00:47:18.758Z,190.20
2024-01-11T00:49:45.482Z,176.23
2024-01-11T00:52:15.155Z,169.00
2024-01-11T00:54:42.318Z,173.60
2024-01-11T00:57:09.140Z,167.40
2024-01-11T00:59:35.876Z,163.00
2024-01-11T01:02:02.854Z,178.13
2024-01-11T01:04:31.599Z,190.10
2024-01-11T01:06:58.793Z,186.73
2024-01-11T01:09:25.594Z,191.67
2024-01-11T01:11:52.432Z,173.80
2024-01-11T01:14:19.104Z,178.20
2024-01-11T01:16:45.880Z,173.23
2024-01-11T01:19:12.695Z,181.43
2024-01-11T01:21:39.361Z,174.43
2024-01-11T01:24:06.197Z,186.67
2024-01-11T01:26:32.883Z,172.43
2024-01-11T01:28:59.623Z,185.93
2024-01-11T01:31:26.284Z,192.53
2024-01-11T01:33:52.989Z,178.33
2024-01-11T01:36:19.698Z,199.27
2024-01-11T01:38:46.787Z,189.70
2024-01-11T01:41:13.463Z,185.13
2024-01-11T01:43:40.129Z,181.20
2024-01-11T01:46:07.116Z,183.17
2024-01-11T01:48:34.101Z,175.20
2024-01-11T01:51:01.033Z,175.80
2024-01-11T01:53:29.820Z,193.20
2024-01-11T01:55:56.876Z,186.47
2024-01-11T01:58:23.750Z,179.53
2024-01-11T02:00:51.856Z,192.37
2024-01-11T02:03:18.960Z,190.50
2024-01-11T02:05:45.931Z,183.87
2024-01-11T02:08:16.619Z,187.93
2024-01-11T02:10:43.342Z,175.80
2024-01-11T02:13:11.050Z,174.53
2024-01-11T02:15:38.060Z,166.33
2024-01-11T02:18:04.984Z,178.93
2024-01-11T02:20:32.370Z,174.47
2024-01-11T02:23:02.636Z,167.03
2024-01-11T02:25:29.363Z,188.83
2024-01-11T02:27:55.983Z,180.80
2024-01-11T02:30:22.694Z,179.80
2024-01-11T02:32:50.400Z,174.13
2024-01-11T02:35:17.646Z,189.47
2024-01-11T02:37:44.978Z,178.40
2024-01-11T02:40:12.128Z,159.87
2024-01-11T02:42:38.905Z,175.10
2024-01-11T02:45:05.823Z,176.63
2024-01-11T02:47:33.093Z,169.03
2024-01-11T02:50:00.163Z,182.27
2024-01-11T02:52:26.898Z,177.10
2024-01-11T02:54:53.570Z,176.93
2024-01-11T02:57:20.186Z,160.20
2024-01-11T02:59:47.176Z,183.60
2024-01-11T03:02:13.852Z,173.50
2024-01-11T03:04:40.770Z,166.10
2024-01-11T03:07:07.406Z,161.37
2024-01-11T03:09:35.415Z,173.07
2024-01-11T03:12:02.116Z,174.10
2024-01-11T03:14:28.790Z,167.83
2024-01-11T03:16:55.477Z,171.70
2024-01-11T03:19:22.229Z,182.40
2024-01-11T03:21:49.035Z,185.07
2024-01-11T03:24:15.700Z,191.87
2024-01-11T03:26:42.640Z,173.07
2024-01-11T03:29:09.473Z,174.27
2024-01-11T03:31:36.182Z,177.60
2024-01-11T03:34:03.092Z,173.60
2024-01-11T03:36:29.879Z,174.80
2024-01-11T03:38:56.527Z,185.80
2024-01-11T03:41:23.242Z,188.07
2024-01-11T03:43:51.451Z,171.50
2024-01-11T03:46:18.167Z,193.00
2024-01-11T03:48:44.908Z,172.43
2024-01-11T03:51:11.576Z,170.27
2024-01-11T03:53:39.155Z,181.23
2024-01-11T03:56:06.174Z,169.20
2024-01-11T03:58:33.393Z,171.70
2024-01-11T04:01:01.122Z,164.03
2024-01-11T04:03:27.831Z,168.13
2024-01-11T04:05:54.689Z,177.37
2024-01-11T04:08:21.458Z,179.20
2024-01-11T04:10:48.099Z,160.57
2024-01-11T04:13:14.769Z,163.47
2024-01-11T04:15:41.398Z,165.23
2024-01-11T04:18:08.165Z,163.20
2024-01-11T04:20:35.384Z,181.43
2024-01-11T04:23:02.175Z,167.13
2024-01-11T04:25:28.890Z,178.33
2024-01-11T04:27:55.857Z,170.73
2024-01-11T04:30:22.542Z,165.80
2024-01-11T04:32:49.486Z,150.80
2024-01-11T04:35:16.421Z,166.23
2024-01-11T04:37:43.037Z,171.03
2024-01-11T04:40:09.998Z,168.90
2024-01-11T04:42:36.790Z,163.50
2024-01-11T04:45:03.660Z,171.50
2024-01-11T04:47:30.634Z,167.03
2024-01-11T04:49:57.544Z,165.60
2024-01-11T04:52:24.203Z,158.13
2024-01-11T04:54:50.847Z,161.20
2024-01-11T04:57:18.062Z,158.67
2024-01-11T04:59:44.751Z,166.13
2024-01-11T05:02:11.679Z,158.13
2024-01-11T05:04:38.524Z,143.47
2024-01-11T05:07:05.386Z,128.37
2024-01-11T05:09:32.000Z,140.93
2024-01-11T05:11:58.706Z,132.83
2024-01-11T05:14:25.466Z,131.23
2024-01-11T05:16:52.175Z,144.50
2024-01-11T05:19:19.146Z,138.50
2024-01-11T05:21:45.784Z,138.20
2024-01-11T05:24:12.554Z,148.07
2024-01-11T05:26:39.446Z,131.40
2024-01-11T05:29:06.484Z,117.97
2024-01-11T05:31:33.480Z,138.30
2024-01-11T05:34:00.624Z,136.53
2024-01-11T05:36:27.351Z,129.03
2024-01-11T05:38:54.064Z,126.50
2024-01-11T05:41:20.753Z,125.10
2024-01-11T05:43:47.636Z,130.83
2024-01-11T05:46:14.493Z,123.17
2024-01-11T05:48:41.451Z,121.33
2024-01-11T05:51:09.334Z,130.43
2024-01-11T05:53:37.234Z,123.37
2024-01-11T05:56:08.848Z,118.67
2024-01-11T05:58:35.708Z,130.85
2024-01-11T06:01:02.540Z,128.80
2024-01-11T06:03:29.574Z,128.57
2024-01-11T06:05:56.443Z,127.40
2024-01-11T06:08:23.356Z,113.97
2024-01-11T06:10:50.215Z,119.77
2024-01-11T06:13:16.919Z,131.77
2024-01-11T06:15:43.921Z,114.10
2024-01-11T06:18:10.885Z,124.97
2024-01-11T06:20:37.735Z,121.33
2024-01-11T06:23:04.528Z,131.70
2024-01-11T06:25:31.235Z,123.47
2024-01-11T06:27:57.896Z,123.37
2024-01-11T06:30:24.613Z,127.43
2024-01-11T06:32:51.506Z,113.07
2024-01-11T06:35:18.324Z,112.20
2024-01-11T06:37:45.056Z,119.57
2024-01-11T06:40:11.990Z,129.70
2024-01-11T06:42:38.641Z,112.87
2024-01-11T06:45:05.487Z,131.07
2024-01-11T06:47:32.364Z,117.80
2024-01-11T06:49:59.333Z,121.70
2024-01-11T06:52:26.597Z,113.23
2024-01-11T06:54:53.381Z,115.37
2024-01-11T06:57:20.132Z,116.77
2024-01-11T06:59:47.889Z,125.33
2024-01-11T07:02:15.097Z,123.90
2024-01-11T07:04:44.991Z,120.83
2024-01-11T07:07:11.809Z,108.33
2024-01-11T07:09:38.412Z,114.93
2024-01-11T07:12:05.213Z,110.20
2024-01-11T07:14:31.935Z,112.67
2024-01-11T07:16:58.726Z,111.50
2024-01-11T07:19:25.499Z,103.80
2024-01-11T07:21:52.241Z,103.30
2024-01-11T07:24:19.856Z,100.00
2024-01-11T07:26:46.751Z,101.80
2024-01-11T07:29:13.540Z,109.63
2024-01-11T07:31:40.301Z,105.37
2024-01-11T07:34:07.142Z,115.60
2024-01-11T07:36:33.942Z,117.23
2024-01-11T07:39:00.924Z,112.63
2024-01-11T07:41:27.719Z,114.03
2024-01-11T07:43:55.510Z,122.60
2024-01-11T07:46:32.305Z,114.57
2024-01-11T07:49:06.560Z,108.07
2024-01-11T07:51:34.118Z,114.00
2024-01-11T07:54:00.837Z,117.30
2024-01-11T07:56:27.636Z,123.90
2024-01-11T07:58:54.610Z,117.77
2024-01-11T08:01:21.387Z,132.00
2024-01-11T08:03:49.119Z,118.87
2024-01-11T08:06:16.232Z,115.10
2024-01-11T08:08:43.169Z,118.43
2024-01-11T08:11:10.051Z,120.10
2024-01-11T08:13:39.196Z,129.73
2024-01-11T08:16:08.660Z,117.83
2024-01-11T08:18:35.586Z,126.03
2024-01-11T08:21:02.465Z,138.33
2024-01-11T08:23:29.192Z,135.13
2024-01-11T08:25:55.896Z,121.43
2024-01-11T08:28:22.607Z,128.17
2024-01-11T08:30:49.467Z,134.80
2024-01-11T08:33:16.356Z,122.90
2024-01-11T08:35:43.606Z,123.77
2024-01-11T08:38:10.849Z,125.57
2024-01-11T08:40:37.706Z,116.03
2024-01-11T08:43:04.610Z,135.57
2024-01-11T08:45:32.435Z,132.73
2024-01-11T08:47:59.422Z,128.50
2024-01-11T08:50:28.537Z,131.77
2024-01-11T08:52:57.278Z,131.70
2024-01-11T08:55:24.483Z,121.97
2024-01-11T08:57:51.425Z,130.60
2024-01-11T09:00:19.613Z,129.27
2024-01-11T09:02:47.575Z,134.07
2024-01-11T09:05:17.375Z,140.17
2024-01-11T09:07:44.292Z,126.57
2024-01-11T09:10:12.718Z,135.30
2024-01-11T09:12:39.752Z,130.33
2024-01-11T09:15:07.135Z,119.87
2024-01-11T09:17:34.200Z,136.40
2024-01-11T09:20:01.520Z,136.47
2024-01-11T09:22:29.343Z,132.03
2024-01-11T09:24:56.368Z,125.60
2024-01-11T09:27:23.820Z,129.70
2024-01-11T09:29:53.264Z,128.50
2024-01-11T09:34:49.412Z,123.73
2024-01-11T09:37:16.125Z,134.17
2024-01-11T09:39:43.896Z,127.30
2024-01-11T09:42:11.686Z,123.47
2024-01-11T09:44:40.223Z,132.03
2024-01-11T09:47:07.794Z,125.77
2024-01-11T09:49:35.005Z,120.00
2024-01-11T09:52:02.793Z,130.43
2024-01-11T09:54:29.568Z,120.23
2024-01-11T09:56:58.021Z,121.57
2024-01-11T09:59:25.240Z,123.40
2024-01-11T10:01:52.312Z,123.13
2024-01-11T10:04:19.048Z,126.70
2024-01-11T10:06:46.555Z,129.93
2024-01-11T10:09:14.430Z,122.80
2024-01-11T10:11:41.319Z,129.47
2024-01-11T10:14:08.140Z,124.57
2024-01-11T10:16:34.898Z,114.90
2024-01-11T10:19:01.688Z,123.33
2024-01-11T10:21:31.807Z,118.97
2024-01-11T10:23:58.809Z,123.13
2024-01-11T10:26:25.676Z,124.33
2024-01-11T10:28:52.399Z,118.23
2024-01-11T10:31:19.529Z,120.57
2024-01-11T10:33:46.872Z,115.83
2024-01-11T10:36:13.633Z,117.13
2024-01-11T10:38:41.070Z,112.43
2024-01-11T10:41:08.289Z,124.10
2024-01-11T10:43:39.060Z,128.23
2024-01-11T10:46:08.082Z,131.27
2024-01-11T10:48:36.899Z,123.67
2024-01-11T10:51:07.351Z,118.73
2024-01-11T10:53:36.827Z,133.07
2024-01-11T10:56:05.439Z,109.40
2024-01-11T10:58:32.630Z,114.27
2024-01-11T11:01:00.615Z,118.27
2024-01-11T11:03:27.700Z,125.43
2024-01-11T11:05:55.087Z,118.63
2024-01-11T11:08:22.048Z,112.33
2024-01-11T11:10:49.395Z,117.53
2024-01-11T11:13:16.775Z,112.37
2024-01-11T11:15:48.345Z,123.07
2024-01-11T11:18:15.453Z,117.75
2024-01-11T11:20:45.262Z,121.33
2024-01-11T11:23:13.392Z,109.03
2024-01-11T11:25:43.783Z,117.00
2024-01-11T11:28:12.421Z,113.13
2024-01-11T11:30:45.885Z,111.10
2024-01-11T11:33:19.697Z,120.53
2024-01-11T11:35:49.828Z,116.47
2024-01-11T11:38:20.346Z,113.77
2024-01-11T11:40:47.816Z,111.97
2024-01-11T11:43:15.402Z,115.50
2024-01-11T11:45:42.713Z,115.63
2024-01-11T11:48:28.632Z,100.87
2024-01-11T11:51:23.109Z,111.87
2024-01-11T11:53:51.881Z,108.40
2024-01-11T11:56:19.579Z,100.27
2024-01-11T11:58:46.925Z,114.07
2024-01-11T12:01:16.232Z,102.10
2024-01-11T12:03:44.093Z,105.47
2024-01-11T12:06:12.258Z,105.97
2024-01-11T12:08:39.310Z,109.90
2024-01-11T12:11:06.903Z,109.83
2024-01-11T12:13:33.878Z,101.07
2024-01-11T12:16:00.653Z,98.27
2024-01-11T12:18:27.510Z,96.50
2024-01-11T12:20:57.204Z,104.27
2024-01-11T12:23:24.119Z,95.57
2024-01-11T12:25:50.808Z,104.47
2024-01-11T12:28:18.478Z,104.50
2024-01-11T12:30:46.317Z,98.57
2024-01-11T12:33:13.693Z,104.93
2024-01-11T12:35:40.810Z,109.83
2024-01-11T12:38:07.918Z,104.30
2024-01-11T12:40:39.046Z,101.60
2024-01-11T12:43:06.208Z,103.75
2024-01-11T12:45:33.822Z,92.73
2024-01-11T12:48:01.584Z,101.87
2024-01-11T12:50:29.098Z,106.33
2024-01-11T12:53:21.607Z,110.53
2024-01-11T12:55:55.151Z,98.57
2024-01-11T12:58:27.645Z,95.50
2024-01-11T13:00:55.420Z,99.03
2024-01-11T13:03:22.467Z,96.07
2024-01-11T13:05:50.251Z,97.70
2024-01-11T13:08:19.505Z,95.30
2024-01-11T13:10:49.590Z,94.57
2024-01-11T13:13:16.713Z,94.47
2024-01-11T13:15:43.501Z,95.93
2024-01-11T13:18:10.920Z,102.13
2024-01-11T13:20:37.824Z,99.80
2024-01-11T13:23:15.351Z,93.00
2024-01-11T13:25:45.764Z,94.17
2024-01-11T13:28:13.307Z,85.03
2024-01-11T13:30:41.014Z,80.50
2024-01-11T13:33:09.501Z,89.13
2024-01-11T13:35:36.890Z,90.50
2024-01-11T13:38:04.297Z,81.47
2024-01-11T13:40:31.753Z,90.83
2024-01-11T13:42:59.363Z,94.70
2024-01-11T13:45:26.975Z,95.57
2024-01-11T13:47:56.943Z,83.83
2024-01-11T13:50:25.831Z,82.63
2024-01-11T13:52:53.199Z,95.17
2024-01-11T13:55:23.061Z,91.53
2024-01-11T13:57:50.931Z,85.63
2024-01-11T14:00:20.196Z,83.50
2024-01-11T14:02:48.618Z,89.40
2024-01-11T14:05:19.215Z,76.83
2024-01-11T14:07:47.139Z,87.20
2024-01-11T14:10:14.543Z,90.93
2024-01-11T14:12:41.691Z,81.33
2024-01-11T14:15:13.006Z,90.07
2024-01-11T14:17:40.417Z,78.00
2024-01-11T14:20:13.335Z,75.67
2024-01-11T14:22:41.505Z,71.23
2024-01-11T14:25:08.509Z,77.37
2024-01-11T14:27:35.236Z,76.60
2024-01-11T14:30:01.886Z,73.93
2024-01-11T14:32:36.030Z,79.43
2024-01-11T14:35:06.222Z,73.13
2024-01-11T14:37:33.947Z,79.43
2024-01-11T14:40:01.055Z,79.67
2024-01-11T14:42:28.448Z,74.97
2024-01-11T14:44:55.633Z,83.23
2024-01-11T14:47:23.181Z,76.07
2024-01-11T14:49:50.302Z,73.50
2024-01-11T14:52:18.456Z,76.10
2024-01-11T14:54:45.747Z,72.97
2024-01-11T14:57:14.481Z,82.47
2024-01-11T14:59:41.458Z,78.40
2024-01-11T15:02:08.564Z,69.00
2024-01-11T15:04:35.458Z,72.03
2024-01-11T15:07:02.206Z,69.50
2024-01-11T15:09:29.066Z,68.33
2024-01-11T15:11:55.761Z,75.20
2024-01-11T15:14:22.583Z,67.87
2024-01-11T15:16:49.839Z,67.50
2024-01-11T15:19:16.801Z,73.40
2024-01-11T15:21:49.004Z,64.33
2024-01-11T15:24:20.685Z,65.30
2024-01-11T15:26:50.231Z,74.53
2024-01-11T15:29:18.281Z,78.47
2024-01-11T15:31:47.840Z,75.87
2024-01-11T15:34:16.315Z,81.07
2024-01-11T15:36:43.803Z,77.90
2024-01-11T15:39:20.972Z,68.43
2024-01-11T15:41:55.768Z,73.40
2024-01-11T15:44:24.016Z,67.37
2024-01-11T15:46:51.032Z,71.57
2024-01-11T15:49:17.902Z,75.20
2024-01-11T15:51:45.449Z,70.83
2024-01-11T15:54:12.735Z,75.10
2024-01-11T15:56:39.558Z,68.13
2024-01-11T15:59:09.678Z,68.70
2024-01-11T16:04:06.803Z,62.33
2024-01-11T16:06:33.674Z,65.20
2024-01-11T16:09:00.495Z,63.30
2024-01-11T16:11:27.203Z,66.37
2024-01-11T16:13:54.056Z,72.77
2024-01-11T16:16:20.794Z,68.27
2024-01-11T16:18:47.715Z,73.87
2024-01-11T16:21:14.489Z,74.73
2024-01-11T16:23:41.360Z,73.70
2024-01-11T16:26:09.405Z,70.27
2024-01-11T16:28:36.409Z,67.93
2024-01-11T16:31:05.092Z,70.57
2024-01-11T16:33:32.112Z,57.43
2024-01-11T16:35:59.584Z,72.10
2024-01-11T16:38:26.702Z,57.23
2024-01-11T16:40:55.828Z,59.70
2024-01-11T16:43:22.868Z,70.97
2024-01-11T16:45:50.561Z,59.50
2024-01-11T16:48:18.578Z,75.47
2024-01-11T16:50:46.096Z,58.27
2024-01-11T16:53:13.071Z,68.27
2024-01-11T16:55:42.336Z,60.87
2024-01-11T16:58:12.608Z,72.40
2024-01-11T17:00:41.446Z,62.30
2024-01-11T17:03:08.453Z,61.23
2024-01-11T17:05:35.837Z,59.60
2024-01-11T17:08:04.664Z,61.90
2024-01-11T17:10:31.643Z,56.40
2024-01-11T17:12:58.455Z,67.37
2024-01-11T17:15:28.051Z,64.03
2024-01-11T17:17:55.080Z,68.23
2024-01-11T17:20:22.030Z,57.73
2024-01-11T17:22:50.852Z,56.77
2024-01-11T17:25:18.313Z,67.83
2024-01-11T17:27:45.094Z,60.67
2024-01-11T17:30:12.151Z,56.13
2024-01-11T17:32:39.535Z,65.57
2024-01-11T17:35:07.126Z,58.27
2024-01-11T17:37:33.822Z,59.37
2024-01-11T17:40:00.695Z,57.50
2024-01-11T17:42:27.375Z,61.87
2024-01-11T17:44:54.385Z,53.23
2024-01-11T17:47:21.113Z,66.27
2024-01-11T17:49:47.986Z,63.67
2024-01-11T17:52:14.801Z,58.97
2024-01-11T17:54:41.494Z,55.23
2024-01-11T17:57:08.800Z,62.37
2024-01-11T17:59:35.552Z,61.87
2024-01-11T18:02:02.716Z,57.63
2024-01-11T18:04:29.513Z,55.13
2024-01-11T18:06:56.561Z,58.53
2024-01-11T18:09:23.367Z,52.37
2024-01-11T18:11:50.578Z,62.57
2024-01-11T18:14:18.046Z,49.30
2024-01-11T18:16:46.344Z,53.90
2024-01-11T18:19:15.067Z,51.80
2024-01-11T18:21:42.191Z,49.73
2024-01-11T18:24:08.900Z,53.30
2024-01-11T18:26:36.624Z,51.53
2024-01-11T18:29:03.526Z,50.80
2024-01-11T18:31:30.659Z,52.27
2024-01-11T18:33:57.458Z,47.67
2024-01-11T18:36:24.863Z,52.33
2024-01-11T18:38:54.383Z,51.43
2024-01-11T18:41:22.475Z,48.63
2024-01-11T18:43:49.354Z,44.73
2024-01-11T18:46:16.384Z,117.70
2024-01-11T18:48:44.248Z,146.83
2024-01-11T18:51:11.236Z,82.43
2024-01-11T18:53:37.946Z,79.27
2024-01-11T18:56:04.914Z,83.20
2024-01-11T18:58:31.633Z,56.47
2024-01-11T19:00:58.635Z,72.63
2024-01-11T19:03:25.522Z,75.60
2024-01-11T19:05:52.672Z,87.07
2024-01-11T19:08:19.597Z,60.80
2024-01-11T19:10:46.416Z,93.93
2024-01-11T19:13:13.077Z,103.30
2024-01-11T19:15:39.933Z,76.97
2024-01-11T19:18:10.276Z,79.70
2024-01-11T19:20:37.241Z,59.07
2024-01-11T19:23:04.661Z,50.63
2024-01-11T19:25:33.423Z,58.57
2024-01-11T19:28:03.477Z,60.57
2024-01-11T19:30:32.986Z,48.00
2024-01-11T19:32:59.902Z,55.57
2024-01-11T19:35:26.752Z,52.10
2024-01-11T19:37:54.620Z,50.40
2024-01-11T19:40:21.563Z,48.43
2024-01-11T19:42:48.391Z,43.10
2024-01-11T19:45:15.677Z,44.47
2024-01-11T19:47:42.634Z,48.13
2024-01-11T19:50:12.747Z,51.20
2024-01-11T19:52:39.478Z,43.00
2024-01-11T19:55:06.361Z,49.50
2024-01-11T19:57:33.557Z,49.33
2024-01-11T20:00:00.962Z,48.33
2024-01-11T20:02:27.882Z,45.13
2024-01-11T20:04:56.737Z,44.37
2024-01-11T20:07:25.437Z,37.43
2024-01-11T20:09:52.159Z,41.37
2024-01-11T20:12:21.932Z,38.17
2024-01-11T20:14:49.333Z,44.83
2024-01-11T20:17:16.670Z,47.40
2024-01-11T20:19:43.511Z,43.00
2024-01-11T20:22:10.408Z,42.00
2024-01-11T20:24:37.628Z,40.13
2024-01-11T20:27:06.202Z,49.17
2024-01-11T20:29:33.150Z,43.30
2024-01-11T20:32:00.110Z,39.17
2024-01-11T20:34:26.915Z,45.23
2024-01-11T20:36:53.752Z,49.70
2024-01-11T20:39:20.473Z,41.00
2024-01-11T20:41:47.312Z,42.73
2024-01-11T20:44:14.425Z,37.10
2024-01-11T20:46:41.229Z,40.93
2024-01-11T20:49:07.966Z,41.40
2024-01-11T20:51:34.761Z,42.43
2024-01-11T20:54:02.529Z,40.23
2024-01-11T20:56:31.821Z,43.73
2024-01-11T20:58:58.663Z,47.70
2024-01-11T21:01:25.561Z,42.30
2024-01-11T21:03:52.332Z,43.23
2024-01-11T21:06:19.340Z,52.90
2024-01-11T21:08:46.283Z,44.77
2024-01-11T21:11:14.292Z,45.07
2024-01-11T21:13:41.055Z,43.03
2024-01-11T21:16:07.776Z,41.90
2024-01-11T21:18:35.283Z,43.03
2024-01-11T21:21:03.143Z,37.03
2024-01-11T21:23:29.981Z,41.53
2024-01-11T21:25:57.518Z,40.60
2024-01-11T21:28:24.331Z,40.73
2024-01-11T21:30:51.230Z,38.27
2024-01-11T21:33:18.235Z,38.13
2024-01-11T21:35:45.250Z,40.13
2024-01-11T21:38:12.204Z,39.97
2024-01-11T21:40:40.956Z,34.53
2024-01-11T21:43:08.920Z,41.90
2024-01-11T21:45:35.867Z,39.30
2024-01-11T21:48:02.593Z,43.00
2024-01-11T21:50:32.456Z,38.87
2024-01-11T21:52:59.231Z,44.27
2024-01-11T21:55:26.275Z,39.03
2024-01-11T21:57:53.147Z,42.20
2024-01-11T22:00:20.086Z,37.70
2024-01-11T22:02:47.095Z,41.53
2024-01-11T22:05:17.248Z,35.73
2024-01-11T22:07:43.896Z,41.20
2024-01-11T22:10:10.630Z,37.73
2024-01-11T22:12:37.395Z,35.77
2024-01-11T22:15:07.611Z,37.70
2024-01-11T22:17:36.007Z,35.05
2024-01-11T22:20:02.825Z,37.70
2024-01-11T22:22:29.665Z,37.07
2024-01-11T22:24:56.286Z,36.50
2024-01-11T22:27:23.044Z,38.10
2024-01-11T22:29:49.792Z,40.63
2024-01-11T22:32:16.631Z,31.43
2024-01-11T22:34:43.355Z,32.27
2024-01-11T22:37:10.169Z,37.77
2024-01-11T22:39:36.811Z,38.47
2024-01-11T22:42:05.011Z,35.53
2024-01-11T22:44:31.849Z,33.03
2024-01-11T22:46:58.856Z,38.33
2024-01-11T22:49:25.685Z,28.10
2024-01-11T22:51:52.376Z,39.47
2024-01-11T22:54:19.598Z,27.77
2024-01-11T22:56:47.609Z,33.37
2024-01-11T22:59:14.493Z,26.53
2024-01-11T23:01:44.363Z,30.97
2024-01-11T23:04:11.157Z,28.30
2024-01-11T23:06:37.978Z,28.13
2024-01-11T23:09:04.755Z,32.53
2024-01-11T23:11:31.513Z,27.90
2024-01-11T23:13:58.459Z,31.53
2024-01-11T23:16:25.286Z,28.40
2024-01-11T23:18:52.138Z,29.10
2024-01-11T23:21:19.009Z,25.63
2024-01-11T23:23:45.639Z,26.97
2024-01-11T23:26:12.482Z,28.07
2024-01-11T23:28:39.214Z,26.23
2024-01-11T23:31:07.389Z,21.27
2024-01-11T23:33:34.471Z,21.03
2024-01-11T23:36:01.367Z,21.77
2024-01-11T23:38:28.216Z,24.23
2024-01-11T23:40:54.862Z,20.60
2024-01-11T23:43:21.630Z,21.37
2024-01-11T23:45:48.434Z,19.10
2024-01-11T23:48:15.228Z,22.33
2024-01-11T23:50:42.168Z,23.20
2024-01-11T23:53:09.066Z,19.13
2024-01-11T23:55:35.744Z,20.27
2024-01-11T23:58:02.507Z,20.20
